Time;durP1;ratioP1;P1;durP2;ratioP2;P2;SDS_P1;SDS_P2;PMS_P1;PMS_P2;Temp;Humidity;BMP_temperature;BMP_pressure;BME280_temperature;BME280_humidity;BME280_pressure;Samples;Min_cycle;Max_cycle;Signal;HPM_P1;HPM_P2
2023/01/02 00:01:29;;;;;;;18.45;9.13;;;;;;;;;;6261565;22;20106;-91
2023/01/02 00:04:13;;;;;;;19.63;8.70;;;;;;;;;;6283178;22;20018;-89
2023/01/02 00:07:00;;;;;;;16.17;9.18;;;;;;;;;;6283651;22;20018;-90
2023/01/02 00:09:45;;;;;;;16.58;8.52;;;;;;;;;;6284300;22;20018;-89
2023/01/02 00:12:29;;;;;;;14.23;8.32;;;;;;;;;;6306283;22;20013;-89
2023/01/02 00:15:14;;;;;;;16.75;8.90;;;;;;;;;;6306141;22;20568;-90
2023/01/02 00:17:58;;;;;;;13.98;8.07;;;;;;;;;;6262109;22;20088;-89
2023/01/02 00:20:43;;;;;;;13.88;8.18;;;;;;;;;;6262214;22;20026;-90
2023/01/02 00:23:27;;;;;;;14.43;7.50;;;;;;;;;;6261466;22;20453;-89
2023/01/02 00:26:12;;;;;;;15.05;8.45;;;;;;;;;;6306800;22;20113;-89
2023/01/02 00:28:56;;;;;;;15.70;9.55;;;;;;;;;;6283613;22;20072;-90
2023/01/02 00:31:41;;;;;;;14.77;8.45;;;;;;;;;;6283575;22;20061;-90
2023/01/02 00:34:25;;;;;;;14.35;8.77;;;;;;;;;;6283015;22;20491;-89
2023/01/02 00:37:10;;;;;;;17.25;8.75;;;;;;;;;;6283691;22;20010;-89
2023/01/02 00:39:57;;;;;;;17.15;9.13;;;10.70;99.90;;;;;;6283801;22;20061;-90
2023/01/02 00:42:41;;;;;;;21.15;10.45;;;;;;;;;;6263233;22;20022;-90
2023/01/02 00:45:26;;;;;;;22.88;11.45;;;;;;;;;;6284919;22;20082;-90
2023/01/02 00:48:10;;;;;;;20.88;10.63;;;;;;;;;;6308409;22;20022;-90
2023/01/02 00:50:55;;;;;;;24.00;11.98;;;;;;;;;;6263673;22;20388;-91
2023/01/02 00:53:39;;;;;;;21.70;11.95;;;;;;;;;;6284889;22;20042;-91
2023/01/02 00:56:24;;;;;;;24.92;12.32;;;;;;;;;;6284947;22;20022;-91
2023/01/02 00:59:11;;;;;;;25.20;13.35;;;;;;;;;;6285191;22;20330;-91
2023/01/02 01:01:56;;;;;;;23.30;12.75;;;;;;;;;;6308229;22;20065;-91
2023/01/02 01:04:43;;;;;;;26.90;13.80;;;;;;;;;;6284727;22;20010;-90
2023/01/02 01:07:28;;;;;;;21.52;13.05;;;;;;;;;;6263988;22;20015;-91
2023/01/02 01:10:13;;;;;;;27.17;14.07;;;;;;;;;;6308511;22;20022;-91
2023/01/02 01:12:57;;;;;;;24.83;14.52;;;;;;;;;;6285484;22;20010;-91
2023/01/02 01:15:52;;;;;;;32.35;14.68;;;;;;;;;;6284983;22;20009;-92
2023/01/02 01:18:42;;;;;;;26.33;15.18;;;;;;;;;;6284942;22;20409;-91
2023/01/02 01:21:32;;;;;;;30.30;16.52;;;;;;;;;;6264073;22;20089;-93
2023/01/02 01:24:17;;;;;;;28.10;16.98;;;;;;;;;;6285308;22;20018;-92
2023/01/02 01:27:04;;;;;;;32.95;17.83;;;10.80;99.90;;;;;;6285228;22;20026;-91
2023/01/02 01:29:49;;;;;;;26.15;16.85;;;;;;;;;;6285614;22;20018;-91
2023/01/02 01:32:38;;;;;;;29.92;17.98;;;;;;;;;;6284708;22;20014;-91
2023/01/02 01:35:23;;;;;;;28.45;17.70;;;;;;;;;;6263911;22;20015;-93
2023/01/02 01:38:07;;;;;;;30.73;17.10;;;;;;;;;;6285061;22;20014;-92
2023/01/02 01:40:55;;;;;;;30.35;16.63;;;;;;;;;;6285158;22;20065;-92
2023/01/02 01:43:48;;;;;;;38.40;17.25;;;;;;;;;;6284573;22;20015;-90
2023/01/02 01:46:36;;;;;;;34.10;17.20;;;;;;;;;;6284477;22;20007;-92
2023/01/02 01:49:28;;;;;;;26.90;16.25;;;;;;;;;;6285144;22;20053;-91
2023/01/02 01:52:15;;;;;;;30.10;15.98;;;;;;;;;;6284804;22;20062;-91
2023/01/02 01:55:13;;;;;;;25.23;15.13;;;;;;;;;;6285011;22;20060;-92
2023/01/02 01:58:04;;;;;;;27.55;15.00;;;;;;;;;;6307875;22;20017;-91
2023/01/02 02:00:49;;;;;;;26.10;15.25;;;;;;;;;;6284429;22;20022;-90
2023/01/02 02:03:35;;;;;;;27.13;15.10;;;11.00;99.90;;;;;;6284322;22;20025;-92
2023/01/02 02:06:30;;;;;;;29.05;14.52;;;;;;;;;;6284909;22;20013;-93
2023/01/02 02:09:22;;;;;;;25.55;15.52;;;11.00;99.90;;;;;;6284662;22;20017;-92
2023/01/02 02:12:10;;;;;;;26.55;14.85;;;;;;;;;;6284647;22;20481;-90
2023/01/02 02:15:03;;;;;;;25.38;15.00;;;;;;;;;;6284521;22;20348;-92
2023/01/02 02:18:37;;;;;;;25.73;13.85;;;11.00;99.90;;;;;;6284373;22;20460;-90
2023/01/02 02:21:41;;;;;;;23.50;13.02;;;;;;;;;;6238432;22;20069;-90
2023/01/02 02:24:28;;;;;;;20.70;13.60;;;;;;;;;;6284572;22;20018;-91
2023/01/02 02:27:32;;;;;;;23.60;14.00;;;11.00;99.90;;;;;;6284697;22;20010;-92
2023/01/02 02:30:19;;;;;;;23.45;12.60;;;;;;;;;;6284599;22;20334;-91
2023/01/02 02:33:20;;;;;;;23.73;12.90;;;;;;;;;;6283891;22;20087;-90
2023/01/02 02:36:27;;;;;;;;;;;;;;;;;;;;;
2023/01/02 02:39:38;;;;;;;24.23;13.75;;;;;;;;;;6307321;22;20014;-92
2023/01/02 02:42:26;;;;;;;20.75;12.15;;;;;;;;;;6284594;22;20065;-91
2023/01/02 02:45:39;;;;;;;30.10;13.90;;;11.10;99.90;;;;;;6284319;22;20014;-91
2023/01/02 02:49:17;;;;;;;24.02;12.82;;;11.10;99.90;;;;;;6284449;22;20069;-91
2023/01/02 02:52:23;;;;;;;24.70;13.20;;;;;;;;;;6157137;22;20069;-91
2023/01/02 02:55:09;;;;;;;25.40;13.60;;;;;;;;;;6276845;22;20015;-91
2023/01/02 02:57:56;;;;;;;22.35;13.68;;;;;;;;;;6253784;22;20453;-91
2023/01/02 03:00:40;;;;;;;25.13;13.65;;;;;;;;;;6253462;22;20109;-91
2023/01/02 03:03:27;;;;;;;26.48;14.10;;;;;;;;;;6254666;22;20046;-92
2023/01/02 03:06:18;;;;;;;28.45;13.43;;;11.20;99.90;;;;;;6281954;22;20011;-91
2023/01/02 03:09:12;;;;;;;52.20;15.02;;;;;;;;;;6259957;22;20015;-90
2023/01/02 03:12:16;;;;;;;;;;;11.10;99.90;;;;;;6262429;22;20015;-92
2023/01/02 03:15:26;;;;;;;25.48;13.10;;;11.10;99.90;;;;;;6259921;22;19938;-92
2023/01/02 03:18:44;;;;;;;30.38;13.63;;;11.10;99.90;;;;;;6282590;22;20010;-91
2023/01/02 03:21:53;;;;;;;27.95;13.15;;;;;;;;;;6257579;22;20037;-91
2023/01/02 03:24:41;;;;;;;24.92;12.75;;;;;;;;;;6253424;22;20014;-94
2023/01/02 03:27:33;;;;;;;23.00;13.00;;;;;;;;;;6253631;22;20042;-91
2023/01/02 03:30:21;;;;;;;27.08;15.05;;;;;;;;;;6253215;22;20073;-92
2023/01/02 03:33:17;;;;;;;27.42;12.75;;;11.20;99.90;;;;;;6253326;22;20061;-90
2023/01/02 03:36:08;;;;;;;25.80;11.90;;;;;;;;;;6252786;22;20141;-90
2023/01/02 03:39:12;;;;;;;28.52;12.75;;;;;;;;;;6252651;22;20453;-92
2023/01/02 03:42:14;;;;;;;27.33;12.43;;;;;;;;;;6275590;22;20015;-90
2023/01/02 03:45:09;;;;;;;25.80;11.23;;;11.20;99.90;;;;;;6252568;22;20039;-90
2023/01/02 03:48:07;;;;;;;24.42;11.80;;;11.20;99.90;;;;;;6252928;22;20465;-90
2023/01/02 03:50:58;;;;;;;23.40;12.10;;;;;;;;;;6252893;22;20091;-91
2023/01/02 03:53:48;;;;;;;24.00;12.70;;;;;;;;;;6253121;22;20054;-90
2023/01/02 03:56:47;;;;;;;25.85;12.85;;;;;;;;;;6253323;22;20014;-91
2023/01/02 04:00:06;;;;;;;20.38;10.98;;;11.30;99.90;;;;;;6253111;22;20015;-90
2023/01/02 04:03:08;;;;;;;27.25;11.95;;;;;;;;;;6275119;22;20070;-91
2023/01/02 04:05:58;;;;;;;20.23;12.43;;;;;;;;;;6252721;22;20042;-91
2023/01/02 04:09:03;;;;;;;25.80;11.05;;;11.30;99.90;;;;;;6253222;22;20015;-92
2023/01/02 04:11:55;;;;;;;19.70;10.63;;;;;;;;;;6252615;22;20338;-92
2023/01/02 04:14:46;;;;;;;21.90;12.07;;;;;;;;;;6253099;22;20388;-90
2023/01/02 04:17:40;;;;;;;20.15;11.07;;;11.40;99.90;;;;;;6254933;22;20010;-90
2023/01/02 04:20:40;;;;;;;20.05;11.05;;;11.40;99.90;;;;;;6254384;22;20018;-88
2023/01/02 04:23:44;;;;;;;22.65;10.65;;;11.40;99.90;;;;;;6277793;22;20019;-90
2023/01/02 04:26:40;;;;;;;20.52;10.80;;;11.40;99.90;;;;;;6255154;22;20011;-89
2023/01/02 04:29:24;;;;;;;27.50;12.27;;;;;;;;;;6230121;22;20041;-90
2023/01/02 04:32:32;;;;;;;26.15;13.68;;;11.40;99.90;;;;;;6254348;22;20461;-89
2023/01/02 04:35:20;;;;;;;20.20;10.95;;;11.40;99.90;;;;;;6277709;22;20018;-89
2023/01/02 04:38:11;;;;;;;25.85;12.40;;;11.40;99.90;;;;;;6277118;22;20037;-89
2023/01/02 04:40:56;;;;;;;28.15;12.13;;;;;;;;;;6254447;22;20394;-90
2023/01/02 04:43:40;;;;;;;24.25;12.25;;;;;;;;;;6255045;22;20022;-90
2023/01/02 04:46:26;;;;;;;22.50;12.52;;;11.40;99.90;;;;;;6254707;22;20014;-90
2023/01/02 04:49:11;;;;;;;21.85;11.98;;;;;;;;;;6254280;22;20078;-90
2023/01/02 04:51:55;;;;;;;21.65;12.35;;;;;;;;;;6284817;22;20388;-89
2023/01/02 04:54:40;;;;;;;21.45;12.35;;;;;;;;;;6307084;22;20065;-89
2023/01/02 04:57:24;;;;;;;22.25;12.27;;;;;;;;;;6307577;22;20042;-90
2023/01/02 05:00:09;;;;;;;27.40;13.82;;;;;;;;;;6306624;22;20021;-90
2023/01/02 05:02:54;;;;;;;24.30;11.82;;;;;;;;;;6285166;22;20349;-91
2023/01/02 05:05:39;;;;;;;20.05;12.10;;;;;;;;;;6308328;22;20018;-91
2023/01/02 05:08:23;;;;;;;24.02;12.13;;;;;;;;;;6307190;22;20037;-90
2023/01/02 05:11:16;;;;;;;21.83;12.48;;;11.40;99.90;;;;;;6307963;22;20485;-91
2023/01/02 05:14:00;;;;;;;25.88;14.25;;;;;;;;;;6308061;22;20065;-90
2023/01/02 05:16:45;;;;;;;23.75;13.57;;;;;;;;;;6308483;22;20048;-90
2023/01/02 05:19:30;;;;;;;24.17;13.65;;;;;;;;;;6308425;22;20079;-91
2023/01/02 05:25:17;;;;;;;23.33;11.85;;;;;;;;;;6306780;22;20152;-89
2023/01/02 05:28:02;;;;;;;22.92;12.50;;;11.50;99.90;;;;;;6306202;22;20022;-91
2023/01/02 05:30:48;;;;;;;20.65;11.65;;;;;;;;;;6306753;22;20141;-89
2023/01/02 05:33:33;;;;;;;21.50;12.15;;;;;;;;;;6307033;22;20046;-89
2023/01/02 05:36:21;;;;;;;19.40;11.48;;;11.50;99.90;;;;;;6306318;22;20018;-89
2023/01/02 05:39:12;;;;;;;21.10;11.13;;;11.50;99.90;;;;;;6306170;22;20023;-93
2023/01/02 05:41:57;;;;;;;19.88;10.55;;;;;;;;;;6307564;22;20022;-90
2023/01/02 05:44:41;;;;;;;22.40;11.25;;;;;;;;;;6308081;22;20050;-90
2023/01/02 05:47:26;;;;;;;24.20;11.95;;;;;;;;;;6308038;22;20010;-90
2023/01/02 05:50:10;;;;;;;23.60;12.13;;;;;;;;;;6306176;22;20034;-90
2023/01/02 05:52:55;;;;;;;18.27;11.00;;;;;;;;;;6306908;22;20495;-90
2023/01/02 05:55:40;;;;;;;22.15;11.50;;;;;;;;;;6306743;22;20073;-90
2023/01/02 05:58:24;;;;;;;21.02;11.95;;;;;;;;;;6308008;22;20079;-90
2023/01/02 06:01:16;;;;;;;18.15;10.48;;;;;;;;;;6307252;22;20054;-90
2023/01/02 06:04:01;;;;;;;19.23;11.20;;;;;;;;;;6306046;22;20334;-90
2023/01/02 06:06:48;;;;;;;20.05;11.27;;;;;;;;;;6306499;22;20440;-93
2023/01/02 06:09:32;;;;;;;17.42;11.00;;;;;;;;;;6306504;22;20018;-89
2023/01/02 06:12:17;;;;;;;20.83;12.50;;;;;;;;;;6306105;22;20341;-90
2023/01/02 06:15:02;;;;;;;18.05;11.15;;;;;;;;;;6306152;22;20015;-92
2023/01/02 06:17:49;;;;;;;21.92;11.73;;;11.60;99.90;;;;;;6306468;22;20096;-90
2023/01/02 06:20:33;;;;;;;20.52;11.88;;;;;;;;;;6306484;22;20046;-89
2023/01/02 06:23:18;;;;;;;20.00;11.88;;;;;;;;;;6305884;22;20030;-89
2023/01/02 06:26:14;;;;;;;19.98;11.70;;;;;;;;;;6306972;22;20014;-89
2023/01/02 06:28:58;;;;;;;22.15;11.43;;;;;;;;;;6305899;22;20019;-90
2023/01/02 06:31:43;;;;;;;18.77;11.18;;;;;;;;;;6306000;22;20069;-89
2023/01/02 06:34:27;;;;;;;19.73;11.68;;;;;;;;;;6307036;22;20066;-90
2023/01/02 06:37:12;;;;;;;16.90;10.57;;;;;;;;;;6284159;22;20108;-90
2023/01/02 06:39:56;;;;;;;15.93;9.57;;;;;;;;;;6305747;22;20018;-89
2023/01/02 06:42:46;;;;;;;15.20;9.32;;;11.70;99.90;;;;;;6306158;22;20063;-90
2023/01/02 06:45:31;;;;;;;18.92;9.95;;;;;;;;;;6284926;22;20014;-90
2023/01/02 06:48:16;;;;;;;16.25;11.13;;;;;;;;;;6283987;22;20033;-91
2023/01/02 06:51:06;;;;;;;20.63;9.18;;;11.80;99.90;;;;;;6284454;22;20038;-90
2023/01/02 06:53:51;;;;;;;10.23;7.10;;;;;;;;;;6274647;22;20050;-89
2023/01/02 06:56:35;;;;;;;11.88;5.82;;;;;;;;;;6276128;22;20062;-90
2023/01/02 06:59:42;;;;;;;12.45;5.50;;;11.70;99.90;;;;;;6252382;22;20110;-89
2023/01/02 07:02:26;;;;;;;7.25;4.28;;;;;;;;;;6251642;22;20050;-90
2023/01/02 07:05:11;;;;;;;7.75;4.70;;;;;;;;;;6230595;22;20066;-89
2023/01/02 07:07:58;;;;;;;6.60;4.90;;;;;;;;;;6253243;22;20345;-90
2023/01/02 07:10:43;;;;;;;5.72;4.32;;;;;;;;;;6252479;22;20087;-90
2023/01/02 07:13:27;;;;;;;5.97;4.40;;;;;;;;;;6230973;22;20077;-89
2023/01/02 07:16:14;;;;;;;6.45;4.18;;;11.40;99.90;;;;;;6275638;22;20014;-92
2023/01/02 07:18:58;;;;;;;4.22;2.80;;;;;;;;;;6276167;22;20014;-89
2023/01/02 07:21:43;;;;;;;4.22;3.30;;;;;;;;;;6253564;22;20150;-89
2023/01/02 07:24:28;;;;;;;4.68;3.40;;;;;;;;;;6231547;22;20046;-89
2023/01/02 07:27:12;;;;;;;5.63;4.07;;;;;;;;;;6252161;22;20461;-92
2023/01/02 07:29:59;;;;;;;5.65;3.67;;;;;;;;;;6231993;22;20091;-89
2023/01/02 07:32:44;;;;;;;5.90;3.95;;;;;;;;;;6275872;22;20403;-88
2023/01/02 07:35:34;;;;;;;5.03;3.67;;;;;;;;;;6251391;22;20069;-90
2023/01/02 07:38:19;;;;;;;9.00;4.35;;;;;;;;;;6251478;22;20092;-89
2023/01/02 07:41:06;;;;;;;5.05;4.05;;;;;;;;;;6275019;22;20115;-89
2023/01/02 07:43:53;;;;;;;5.28;3.72;;;;;;;;;;6252351;22;20014;-89
2023/01/02 07:46:40;;;;;;;6.50;4.22;;;;;;;;;;6251491;22;20014;-87
2023/01/02 07:49:25;;;;;;;6.88;4.20;;;;;;;;;;6252022;22;20528;-89
2023/01/02 07:52:10;;;;;;;7.65;4.78;;;;;;;;;;6286809;22;20022;-90
2023/01/02 07:54:54;;;;;;;9.10;4.97;;;;;;;;;;6306622;22;20014;-91
2023/01/02 07:57:39;;;;;;;7.82;4.68;;;;;;;;;;6283357;22;20018;-90
2023/01/02 08:00:23;;;;;;;6.97;4.07;;;;;;;;;;6283172;22;20022;-89
2023/01/02 08:03:08;;;;;;;5.57;3.47;;;;;;;;;;6262390;22;20018;-90
2023/01/02 08:05:53;;;;;;;6.07;2.67;;;;;;;;;;6283783;22;20185;-90
2023/01/02 08:08:38;;;;;;;6.00;3.28;;;;;;;;;;6282864;22;20089;-91
2023/01/02 08:11:23;;;;;;;6.22;3.08;;;;;;;;;;6283202;22;20014;-91
2023/01/02 08:14:09;;;;;;;5.25;3.03;;;;;;;;;;6306735;22;20026;-89
2023/01/02 08:16:56;;;;;;;5.38;3.13;;;;;;;;;;6283399;22;20472;-90
2023/01/02 08:19:41;;;;;;;5.57;2.65;;;;;;;;;;6282486;22;20014;-89
2023/01/02 08:22:25;;;;;;;5.72;2.70;;;;;;;;;;6306138;22;20037;-89
2023/01/02 08:25:10;;;;;;;4.85;2.08;;;;;;;;;;6283349;22;20053;-89
2023/01/02 08:27:55;;;;;;;4.18;1.60;;;;;;;;;;6306618;22;20061;-90
2023/01/02 08:30:40;;;;;;;4.68;1.67;;;;;;;;;;6306107;22;20014;-90
2023/01/02 08:33:24;;;;;;;4.68;1.95;;;;;;;;;;6283054;22;20061;-90
2023/01/02 08:36:09;;;;;;;4.22;1.50;;;;;;;;;;6283531;22;20457;-91
2023/01/02 08:38:56;;;;;;;3.67;1.35;;;;;;;;;;6306533;22;20076;-89
2023/01/02 08:41:41;;;;;;;3.55;1.50;;;;;;;;;;6283834;22;20252;-89
2023/01/02 08:44:25;;;;;;;4.05;1.83;;;;;;;;;;6306122;22;20018;-91
2023/01/02 08:47:10;;;;;;;4.40;1.90;;;;;;;;;;6306770;22;20449;-90
2023/01/02 08:49:55;;;;;;;4.43;1.75;;;;;;;;;;6283512;22;20485;-89
2023/01/02 08:52:39;;;;;;;4.78;1.77;;;;;;;;;;6283188;22;20050;-90
2023/01/02 08:55:24;;;;;;;3.78;1.70;;;;;;;;;;6283210;22;20346;-91
2023/01/02 08:58:08;;;;;;;5.20;1.85;;;;;;;;;;6305259;22;20019;-90
2023/01/02 09:00:56;;;;;;;3.90;2.20;;;;;;;;;;6306708;22;20122;-90
2023/01/02 09:03:42;;;;;;;4.68;1.95;;;;;;;;;;6285051;22;20022;-90
2023/01/02 09:06:30;;;;;;;3.95;1.75;;;8.60;99.90;;;;;;6285601;22;20030;-90
2023/01/02 09:09:16;;;;;;;6.65;2.15;;;8.60;99.90;;;;;;6307012;22;20092;-89
2023/01/02 09:12:00;;;;;;;4.07;1.98;;;;;;;;;;6307038;22;20036;-89
2023/01/02 09:14:47;;;;;;;4.70;2.35;;;;;;;;;;6306668;22;20037;-89
2023/01/02 09:17:31;;;;;;;5.07;2.38;;;;;;;;;;6306522;22;20065;-90
2023/01/02 09:20:16;;;;;;;7.05;3.10;;;;;;;;;;6285009;22;20388;-89
2023/01/02 09:23:00;;;;;;;4.55;2.28;;;;;;;;;;6307985;22;20098;-89
2023/01/02 09:25:45;;;;;;;5.75;2.40;;;;;;;;;;6306389;22;20037;-90
2023/01/02 09:28:31;;;;;;;6.15;2.40;;;8.50;99.90;;;;;;6306277;22;20014;-89
2023/01/02 09:31:25;;;;;;;4.68;2.70;;;;;;;;;;6284718;22;20064;-90
2023/01/02 09:34:10;;;;;;;3.75;2.25;;;;;;;;;;6306725;22;20077;-91
2023/01/02 09:36:55;;;;;;;4.05;2.38;;;;;;;;;;6307455;22;20090;-90
2023/01/02 09:39:39;;;;;;;3.88;2.20;;;;;;;;;;6284327;22;20393;-89
2023/01/02 09:42:24;;;;;;;4.00;2.38;;;;;;;;;;6307318;22;20018;-90
2023/01/02 09:45:09;;;;;;;4.90;2.88;;;8.50;99.90;;;;;;6306675;22;20013;-91
2023/01/02 09:47:57;;;;;;;6.28;2.53;;;8.50;99.90;;;;;;6306482;22;20382;-89
2023/01/02 09:50:44;;;;;;;5.68;2.72;;;8.50;99.90;;;;;;6306404;22;20014;-90
2023/01/02 09:53:29;;;;;;;5.35;2.90;;;;;;;;;;6285420;22;20022;-89
2023/01/02 09:56:23;;;;;;;4.97;3.08;;;;;;;;;;6306916;22;20065;-90
2023/01/02 09:59:23;;;;;;;6.13;3.20;;;;;;;;;;6311386;22;20057;-90
2023/01/02 10:02:08;;;;;;;6.32;3.30;;;;;;;;;;6311792;22;20030;-90
2023/01/02 10:05:05;;;;;;;5.70;3.45;;;;;;;;;;6307226;22;20100;-89
2023/01/02 10:07:56;;;;;;;9.25;3.25;;;;;;;;;;6307977;22;20029;-90
2023/01/02 10:10:55;;;;;;;6.13;2.97;;;8.60;99.90;;;;;;6306863;22;20018;-89
2023/01/02 10:13:57;;;;;;;5.65;2.95;;;8.60;99.90;;;;;;6305834;22;20041;-91
2023/01/02 10:16:45;;;;;;;6.50;3.03;;;8.70;99.90;;;;;;6306224;22;20013;-90
2023/01/02 10:20:14;;;;;;;4.82;2.55;;;8.70;99.90;;;;;;6306334;22;20046;-90
2023/01/02 10:23:01;;;;;;;6.28;3.28;;;;;;;;;;6286827;22;20117;-90
2023/01/02 10:25:51;;;;;;;4.93;2.85;;;;;;;;;;6307236;22;20049;-90
2023/01/02 10:28:54;;;;;;;6.18;2.22;;;;;;;;;;6305726;22;20052;-95
2023/01/02 10:31:54;;;;;;;4.30;2.13;;;;;;;;;;6305784;22;20456;-90
2023/01/02 10:34:53;;;;;;;4.60;2.50;;;;;;;;;;6305554;22;20031;-90
2023/01/02 10:37:45;;;;;;;4.18;2.30;;;;;;;;;;6305881;22;20045;-93
2023/01/02 10:40:31;;;;;;;3.85;2.03;;;;;;;;;;6305990;22;20084;-91
2023/01/02 10:43:19;;;;;;;5.53;2.00;;;;;;;;;;6306258;22;20451;-90
2023/01/02 10:46:08;;;;;;;3.97;2.40;;;;;;;;;;6306254;22;20380;-90
2023/01/02 10:49:04;;;;;;;5.72;2.17;;;;;;;;;;6305678;22;20096;-90
2023/01/02 10:52:05;;;;;;;6.35;2.65;;;;;;;;;;6305479;22;20073;-91
2023/01/02 10:54:54;;;;;;;5.15;2.63;;;;;;;;;;6305595;22;20141;-91
2023/01/02 10:57:49;;;;;;;6.30;2.60;;;;;;;;;;6306198;22;20041;-91
2023/01/02 11:00:54;;;;;;;4.03;2.42;;;;;;;;;;6307143;22;20018;-91
2023/01/02 11:03:44;;;;;;;;;;;8.70;99.90;;;;;;6306359;22;20508;-91
2023/01/02 11:06:39;;;;;;;4.82;2.42;;;;;;;;;;6305910;22;19944;-91
2023/01/02 11:09:28;;;;;;;4.95;1.90;;;;;;;;;;6286171;22;20053;-91
2023/01/02 11:12:25;;;;;;;;;;;;;;;;;;;;;
2023/01/02 11:15:15;;;;;;;6.03;2.20;;;;;;;;;;6306324;22;20050;-91
2023/01/02 11:18:01;;;;;;;7.05;2.10;;;;;;;;;;6305700;22;20061;-91
2023/01/02 11:20:53;;;;;;;4.93;1.80;;;;;;;;;;6305356;22;20121;-91
2023/01/02 11:23:46;;;;;;;5.65;2.15;;;;;;;;;;6305706;22;20431;-90
2023/01/02 11:26:34;;;;;;;4.53;1.77;;;;;;;;;;6305730;22;20052;-90
2023/01/02 11:29:24;;;;;;;6.50;2.50;;;;;;;;;;6305108;22;20469;-90
2023/01/02 11:32:20;;;;;;;6.57;2.13;;;;;;;;;;6306375;22;20441;-91
2023/01/02 11:35:49;;;;;;;7.18;2.78;;;9.00;99.90;;;;;;6307131;22;20059;-92
2023/01/02 11:38:52;;;;;;;4.68;2.20;;;9.00;99.90;;;;;;6308096;22;20064;-90
2023/01/02 11:44:56;;;;;;;9.98;2.65;;;;;;;;;;6306820;22;20429;-91
2023/01/02 11:47:47;;;;;;;7.72;1.98;;;;;;;;;;6306293;22;20125;-92
2023/01/02 11:50:39;;;;;;;9.43;2.47;;;;;;;;;;6284418;22;20064;-90
2023/01/02 11:53:28;;;;;;;6.85;2.38;;;;;;;;;;6304788;22;20068;-90
2023/01/02 11:56:27;;;;;;;10.68;2.75;;;8.90;99.90;;;;;;6305578;22;20052;-90
2023/01/02 11:59:14;;;;;;;6.88;2.35;;;;;;;;;;6305337;22;20017;-89
2023/01/02 12:02:35;;;;;;;6.18;2.40;;;8.90;99.90;;;;;;6305003;22;20030;-90
2023/01/02 12:05:35;;;;;;;8.55;2.85;;;;;;;;;;6304853;22;20064;-91
2023/01/02 12:08:20;;;;;;;12.52;3.80;;;;;;;;;;6305234;22;20010;-90
2023/01/02 12:11:10;;;;;;;8.07;2.33;;;;;;;;;;6304930;22;20354;-89
2023/01/02 12:14:05;;;;;;;12.95;3.38;;;;;;;;;;6304925;22;20465;-90
2023/01/02 12:17:16;;;;;;;6.18;2.05;;;;;;;;;;6305144;22;20018;-95
2023/01/02 12:20:20;;;;;;;7.00;2.08;;;;;;;;;;6304738;22;20141;-90
2023/01/02 12:23:27;;;;;;;10.17;2.43;;;9.00;99.90;;;;;;6305092;22;20338;-91
2023/01/02 12:26:18;;;;;;;7.68;2.10;;;9.10;99.90;;;;;;6306365;22;20225;-91
2023/01/02 12:29:17;;;;;;;8.13;2.20;;;9.00;99.90;;;;;;6306046;22;20083;-93
2023/01/02 12:32:23;;;;;;;7.40;1.75;;;8.90;99.90;;;;;;6305114;22;20057;-91
2023/01/02 12:35:17;;;;;;;7.70;1.90;;;;;;;;;;6305279;22;20014;-91
2023/01/02 12:38:04;;;;;;;10.40;2.70;;;;;;;;;;6305764;22;20441;-91
2023/01/02 12:41:12;;;;;;;9.30;2.55;;;;;;;;;;6307082;22;20014;-91
2023/01/02 12:44:16;;;;;;;7.70;2.47;;;;;;;;;;6306982;22;20029;-91
2023/01/02 12:47:16;;;;;;;7.07;2.25;;;;;;;;;;6306652;22;20499;-91
2023/01/02 12:50:04;;;;;;;11.45;1.63;;;;;;;;;;6306835;22;20033;-93
2023/01/02 12:52:48;;;;;;;14.85;2.95;;;;;;;;;;6306644;22;20107;-90
2023/01/02 12:55:47;;;;;;;11.65;1.85;;;;;;;;;;6307005;22;20026;-91
2023/01/02 12:58:35;;;;;;;9.52;1.92;;;;;;;;;;6307101;22;20010;-91
2023/01/02 13:01:30;;;;;;;10.35;2.00;;;;;;;;;;6306818;22;20090;-89
2023/01/02 13:04:27;;;;;;;11.50;2.03;;;9.10;99.90;;;;;;6306678;22;20022;-89
2023/01/02 13:07:45;;;;;;;6.40;1.77;;;9.10;99.90;;;;;;6306750;22;20014;-90
2023/01/02 13:10:30;;;;;;;9.15;2.40;;;;;;;;;;6307029;22;20060;-90
2023/01/02 13:13:15;;;;;;;12.52;2.47;;;9.10;99.90;;;;;;6306825;22;20030;-89
2023/01/02 13:16:07;;;;;;;8.63;2.80;;;9.10;99.90;;;;;;6263383;22;20014;-90
2023/01/02 13:19:05;;;;;;;11.98;2.28;;;9.10;99.90;;;;;;6307138;22;20395;-90
2023/01/02 13:21:56;;;;;;;11.85;2.60;;;;;;;;;;6307121;22;20094;-90
2023/01/02 13:24:42;;;;;;;10.98;3.00;;;9.10;99.90;;;;;;6308172;22;20387;-89
2023/01/02 13:27:27;;;;;;;10.32;2.20;;;;;;;;;;6308205;22;20045;-90
2023/01/02 13:30:33;;;;;;;11.23;2.17;;;9.10;99.90;;;;;;6284853;22;20023;-90
2023/01/02 13:33:34;;;;;;;11.57;2.58;;;9.10;99.90;;;;;;6306468;22;20094;-90
2023/01/02 13:36:28;;;;;;;13.35;2.53;;;9.10;99.90;;;;;;6307654;22;20046;-90
2023/01/02 13:39:18;;;;;;;10.30;2.40;;;9.10;99.90;;;;;;6308121;22;20044;-90
2023/01/02 13:45:12;;;;;;;13.65;2.13;;;;;;;;;;6308234;22;20053;-90
2023/01/02 13:47:59;;;;;;;15.85;3.40;;;9.20;99.90;;;;;;6306680;22;20480;-90
2023/01/02 13:50:44;;;;;;;13.60;2.42;;;;;;;;;;6285470;22;20090;-90
2023/01/02 13:53:36;;;;;;;11.45;2.60;;;9.10;99.90;;;;;;6285451;22;20038;-89
2023/01/02 13:56:23;;;;;;;13.93;2.40;;;9.20;99.90;;;;;;6306626;22;20342;-90
2023/01/02 13:59:28;;;;;;;11.85;2.90;;;9.20;99.90;;;;;;6306527;22;20018;-89
2023/01/02 14:02:19;;;;;;;14.80;2.75;;;9.20;99.90;;;;;;6306431;22;20060;-90
2023/01/02 14:05:52;;;;;;;9.40;2.28;;;9.20;99.90;;;;;;6264471;22;20380;-90
2023/01/02 14:08:38;;;;;;;12.80;2.58;;;;;;;;;;6306342;22;20018;-89
2023/01/02 14:11:30;;;;;;;12.77;2.60;;;9.20;99.90;;;;;;6305691;22;20338;-88
2023/01/02 14:14:29;;;;;;;14.73;2.90;;;;;;;;;;6308152;22;20030;-90
2023/01/02 14:17:44;;;;;;;11.05;2.97;;;9.20;99.90;;;;;;6306654;22;20013;-90
2023/01/02 14:20:48;;;;;;;15.73;3.38;;;9.20;99.90;;;;;;6306933;22;20131;-89
2023/01/02 14:23:40;;;;;;;11.13;2.63;;;;;;;;;;6306435;22;20042;-90
2023/01/02 14:26:33;;;;;;;19.67;3.20;;;;;;;;;;6307557;22;20018;-90
2023/01/02 14:29:18;;;;;;;13.07;3.70;;;;;;;;;;6305969;22;20018;-90
2023/01/02 14:32:07;;;;;;;17.73;3.90;;;;;;;;;;6306398;22;20061;-90
2023/01/02 14:34:56;;;;;;;13.77;3.17;;;;;;;;;;6305930;22;20053;-90
2023/01/02 14:37:48;;;;;;;13.38;3.25;;;9.10;99.90;;;;;;6306182;22;20013;-90
2023/01/02 14:40:34;;;;;;;16.30;2.80;;;;;;;;;;6306747;22;20334;-90
2023/01/02 14:43:29;;;;;;;10.65;3.08;;;;;;;;;;6305423;22;20503;-91
2023/01/02 14:46:22;;;;;;;17.73;4.45;;;;;;;;;;6305447;22;20018;-90
2023/01/02 14:49:23;;;;;;;18.25;3.40;;;9.10;99.90;;;;;;6306019;22;20061;-89
2023/01/02 14:52:18;;;;;;;32.70;4.20;;;9.10;99.90;;;;;;6303113;22;20448;-91
2023/01/02 14:55:13;;;;;;;14.23;4.15;;;;;;;;;;6309481;22;20065;-90
2023/01/02 14:57:59;;;;;;;13.15;3.30;;;;;;;;;;6311380;22;20014;-90
2023/01/02 15:00:48;;;;;;;11.55;2.90;;;;;;;;;;6305407;22;20337;-89
2023/01/02 15:03:48;;;;;;;13.43;2.95;;;;;;;;;;6305457;22;20094;-89
2023/01/02 15:06:40;;;;;;;11.73;2.65;;;;;;;;;;6305214;22;20074;-90
2023/01/02 15:09:33;;;;;;;17.20;2.88;;;;;;;;;;6305425;22;20341;-89
2023/01/02 15:15:46;;;;;;;14.23;3.85;;;9.00;99.90;;;;;;6306422;22;20018;-89
2023/01/02 15:18:34;;;;;;;16.65;3.70;;;;;;;;;;6305323;22;20069;-89
2023/01/02 15:21:21;;;;;;;13.60;2.63;;;;;;;;;;6305177;22;20054;-90
2023/01/02 15:24:11;;;;;;;13.25;2.40;;;;;;;;;;6305454;22;20049;-90
2023/01/02 15:27:25;;;;;;;17.98;2.63;;;8.80;99.90;;;;;;6305609;22;20384;-89
2023/01/02 15:30:32;;;;;;;14.52;3.05;;;;;;;;;;6305591;22;20400;-89
2023/01/02 15:33:27;;;;;;;8.85;2.40;;;;;;;;;;6306064;22;20034;-92
2023/01/02 15:36:17;;;;;;;13.05;2.58;;;;;;;;;;6305433;22;20014;-89
2023/01/02 15:39:14;;;;;;;16.52;2.55;;;;;;;;;;6305439;22;20491;-89
2023/01/02 15:41:59;;;;;;;11.48;3.00;;;;;;;;;;6305547;22;20057;-90
2023/01/02 15:47:51;;;;;;;11.60;2.63;;;;;;;;;;6306742;22;20057;-89
2023/01/02 15:50:39;;;;;;;21.13;4.85;;;8.70;99.90;;;;;;6305167;22;20057;-89
2023/01/02 15:53:38;;;;;;;10.93;3.17;;;8.70;99.90;;;;;;6304702;22;20072;-89
2023/01/02 15:56:41;;;;;;;15.75;3.85;;;;;;;;;;6304869;22;20392;-88
2023/01/02 15:59:33;;;;;;;16.77;4.00;;;;;;;;;;6304093;22;20045;-89
2023/01/02 16:02:42;;;;;;;13.93;3.10;;;8.60;99.90;;;;;;6305201;22;20065;-88
2023/01/02 16:05:27;;;;;;;13.05;3.50;;;;;;;;;;6306074;22;20342;-89
2023/01/02 16:08:20;;;;;;;9.45;2.50;;;8.60;99.90;;;;;;6305016;22;20014;-89
2023/01/02 16:11:05;;;;;;;16.85;3.63;;;;;;;;;;6305632;22;20018;-89
2023/01/02 16:14:19;;;;;;;13.80;2.70;;;8.50;99.90;;;;;;6307449;22;20007;-88
2023/01/02 16:17:05;;;;;;;14.50;2.75;;;;;;;;;;6307546;22;20102;-88
2023/01/02 16:19:52;;;;;;;9.75;2.70;;;;;;;;;;6307330;22;20015;-89
2023/01/02 16:22:45;;;;;;;17.05;4.80;;;;;;;;;;6308090;22;20014;-89
2023/01/02 16:25:34;;;;;;;11.68;3.25;;;8.50;99.90;;;;;;6307004;22;20014;-89
2023/01/02 16:28:24;;;;;;;11.77;3.42;;;8.50;99.90;;;;;;6307690;22;20026;-86
2023/01/02 16:31:16;;;;;;;11.77;3.95;;;8.50;99.90;;;;;;6308500;22;20061;-86
2023/01/02 16:34:14;;;;;;;10.02;2.75;;;8.40;99.90;;;;;;6308766;22;20061;-87